sensor_id;sensor_type;location;lat;lon;timestamp;pressure;altitude;pressure_sealevel;temperature;humidity
65614;BME280;52283;49.292;10.572;2023-02-26T00:01:35;95885.22;;;-1.67;100.00
65614;BME280;52283;49.292;10.572;2023-02-26T00:04:04;95880.94;;;-1.68;100.00
65614;BME280;52283;49.292;10.572;2023-02-26T00:06:33;95888.06;;;-1.83;100.00
65614;BME280;52283;49.292;10.572;2023-02-26T00:09:01;95885.22;;;-1.79;100.00
65614;BME280;52283;49.292;10.572;2023-02-26T00:11:28;95892.00;;;-1.84;100.00
65614;BME280;52283;49.292;10.572;2023-02-26T00:13:55;95891.84;;;-1.93;100.00
65614;BME280;52283;49.292;10.572;2023-02-26T00:16:26;95892.41;;;-1.98;100.00
65614;BME280;52283;49.292;10.572;2023-02-26T00:18:52;95894.16;;;-2.04;100.00
65614;BME280;52283;49.292;10.572;2023-02-26T00:21:21;95902.16;;;-1.97;100.00
65614;BME280;52283;49.292;10.572;2023-02-26T00:23:48;95900.50;;;-2.07;100.00
65614;BME280;52283;49.292;10.572;2023-02-26T00:26:16;95896.41;;;-2.16;100.00
65614;BME280;52283;49.292;10.572;2023-02-26T00:28:43;95900.66;;;-2.27;100.00
65614;BME280;52283;49.292;10.572;2023-02-26T00:31:10;95898.56;;;-2.23;100.00
65614;BME280;52283;49.292;10.572;2023-02-26T00:33:37;95901.22;;;-2.20;100.00
65614;BME280;52283;49.292;10.572;2023-02-26T00:36:14;95904.59;;;-2.28;100.00
65614;BME280;52283;49.292;10.572;2023-02-26T00:38:59;95905.69;;;-2.26;100.00
65614;BME280;52283;49.292;10.572;2023-02-26T00:41:33;95908.09;;;-2.28;100.00
65614;BME280;52283;49.292;10.572;2023-02-26T00:44:00;95914.69;;;-2.41;100.00
65614;BME280;52283;49.292;10.572;2023-02-26T00:46:35;95924.50;;;-2.28;100.00
65614;BME280;52283;49.292;10.572;2023-02-26T00:49:12;95911.88;;;-2.38;100.00
65614;BME280;52283;49.292;10.572;2023-02-26T00:51:47;95924.38;;;-2.53;100.00
65614;BME280;52283;49.292;10.572;2023-02-26T00:54:17;95911.63;;;-2.43;100.00
65614;BME280;52283;49.292;10.572;2023-02-26T00:56:46;95927.41;;;-2.35;100.00
65614;BME280;52283;49.292;10.572;2023-02-26T00:59:13;95916.03;;;-2.33;100.00
65614;BME280;52283;49.292;10.572;2023-02-26T01:01:40;95916.91;;;-2.36;100.00
65614;BME280;52283;49.292;10.572;2023-02-26T01:04:07;95916.72;;;-2.29;100.00
65614;BME280;52283;49.292;10.572;2023-02-26T01:06:35;95918.53;;;-2.39;100.00
65614;BME280;52283;49.292;10.572;2023-02-26T01:09:09;95916.91;;;-2.36;100.00
65614;BME280;52283;49.292;10.572;2023-02-26T01:11:39;95913.50;;;-2.40;100.00
65614;BME280;52283;49.292;10.572;2023-02-26T01:14:08;95915.38;;;-2.37;100.00
65614;BME280;52283;49.292;10.572;2023-02-26T01:16:42;95911.53;;;-2.40;100.00
65614;BME280;52283;49.292;10.572;2023-02-26T01:19:18;95910.34;;;-2.39;100.00
65614;BME280;52283;49.292;10.572;2023-02-26T01:21:48;95908.25;;;-2.35;100.00
65614;BME280;52283;49.292;10.572;2023-02-26T01:24:18;95913.94;;;-2.13;100.00
65614;BME280;52283;49.292;10.572;2023-02-26T01:26:47;95913.63;;;-2.31;100.00
65614;BME280;52283;49.292;10.572;2023-02-26T01:29:16;95914.53;;;-2.51;100.00
65614;BME280;52283;49.292;10.572;2023-02-26T01:31:48;95916.88;;;-2.20;100.00
65614;BME280;52283;49.292;10.572;2023-02-26T01:34:18;95910.63;;;-2.21;100.00
65614;BME280;52283;49.292;10.572;2023-02-26T01:36:49;95921.56;;;-2.21;100.00
65614;BME280;52283;49.292;10.572;2023-02-26T01:39:25;95920.00;;;-2.51;100.00
65614;BME280;52283;49.292;10.572;2023-02-26T01:41:57;95929.28;;;-2.32;100.00
65614;BME280;52283;49.292;10.572;2023-02-26T01:44:32;95930.13;;;-2.48;100.00
65614;BME280;52283;49.292;10.572;2023-02-26T01:47:13;95928.06;;;-2.43;100.00
65614;BME280;52283;49.292;10.572;2023-02-26T01:49:42;95920.75;;;-2.34;100.00
65614;BME280;52283;49.292;10.572;2023-02-26T01:55:15;95915.56;;;-2.44;100.00
65614;BME280;52283;49.292;10.572;2023-02-26T01:57:42;95917.44;;;-2.41;100.00
65614;BME280;52283;49.292;10.572;2023-02-26T02:00:11;95913.13;;;-2.26;100.00
65614;BME280;52283;49.292;10.572;2023-02-26T02:02:38;95922.63;;;-2.31;100.00
65614;BME280;52283;49.292;10.572;2023-02-26T02:05:11;95913.16;;;-2.13;100.00
65614;BME280;52283;49.292;10.572;2023-02-26T02:07:40;95923.69;;;-2.12;100.00
65614;BME280;52283;49.292;10.572;2023-02-26T02:10:07;95917.31;;;-2.22;100.00
65614;BME280;52283;49.292;10.572;2023-02-26T02:12:37;95921.97;;;-2.06;100.00
65614;BME280;52283;49.292;10.572;2023-02-26T02:15:12;95910.09;;;-2.16;100.00
65614;BME280;52283;49.292;10.572;2023-02-26T02:17:48;95925.88;;;-2.36;100.00
65614;BME280;52283;49.292;10.572;2023-02-26T02:20:26;95926.84;;;-2.42;100.00
65614;BME280;52283;49.292;10.572;2023-02-26T02:23:07;95934.88;;;-2.52;100.00
65614;BME280;52283;49.292;10.572;2023-02-26T02:25:52;95927.88;;;-2.53;100.00
65614;BME280;52283;49.292;10.572;2023-02-26T02:28:33;95944.63;;;-2.51;100.00
65614;BME280;52283;49.292;10.572;2023-02-26T02:31:05;95936.63;;;-2.58;100.00
65614;BME280;52283;49.292;10.572;2023-02-26T02:33:41;95939.78;;;-2.59;100.00
65614;BME280;52283;49.292;10.572;2023-02-26T02:36:12;95947.91;;;-2.72;100.00
65614;BME280;52283;49.292;10.572;2023-02-26T02:38:45;95949.44;;;-2.71;100.00
65614;BME280;52283;49.292;10.572;2023-02-26T02:41:16;95948.00;;;-2.76;100.00
65614;BME280;52283;49.292;10.572;2023-02-26T02:43:44;95936.81;;;-2.81;100.00
65614;BME280;52283;49.292;10.572;2023-02-26T02:46:17;95947.50;;;-2.87;100.00
65614;BME280;52283;49.292;10.572;2023-02-26T02:48:48;95941.19;;;-2.84;100.00
65614;BME280;52283;49.292;10.572;2023-02-26T02:51:23;95937.16;;;-2.95;100.00
65614;BME280;52283;49.292;10.572;2023-02-26T02:53:54;95945.69;;;-2.93;100.00
65614;BME280;52283;49.292;10.572;2023-02-26T02:56:24;95938.97;;;-2.89;100.00
65614;BME280;52283;49.292;10.572;2023-02-26T02:58:54;95929.03;;;-2.99;100.00
65614;BME280;52283;49.292;10.572;2023-02-26T03:01:25;95934.44;;;-3.12;100.00
65614;BME280;52283;49.292;10.572;2023-02-26T03:03:56;95938.53;;;-3.03;100.00
65614;BME280;52283;49.292;10.572;2023-02-26T03:06:23;95936.47;;;-2.99;100.00
65614;BME280;52283;49.292;10.572;2023-02-26T03:08:51;95937.09;;;-3.08;100.00
65614;BME280;52283;49.292;10.572;2023-02-26T03:11:18;95946.03;;;-3.08;100.00
65614;BME280;52283;49.292;10.572;2023-02-26T03:13:45;95952.38;;;-3.11;100.00
65614;BME280;52283;49.292;10.572;2023-02-26T03:16:27;95942.03;;;-3.03;100.00
65614;BME280;52283;49.292;10.572;2023-02-26T03:18:59;95948.44;;;-3.10;100.00
65614;BME280;52283;49.292;10.572;2023-02-26T03:21:33;95961.16;;;-3.03;100.00
65614;BME280;52283;49.292;10.572;2023-02-26T03:24:06;95943.66;;;-3.05;100.00
65614;BME280;52283;49.292;10.572;2023-02-26T03:26:39;95950.47;;;-3.14;100.00
65614;BME280;52283;49.292;10.572;2023-02-26T03:29:10;95959.09;;;-3.31;100.00
65614;BME280;52283;49.292;10.572;2023-02-26T03:31:46;95965.16;;;-3.24;100.00
65614;BME280;52283;49.292;10.572;2023-02-26T03:34:18;95965.16;;;-3.24;100.00
65614;BME280;52283;49.292;10.572;2023-02-26T03:36:52;95977.38;;;-3.28;100.00
65614;BME280;52283;49.292;10.572;2023-02-26T03:39:24;95979.25;;;-3.25;100.00
65614;BME280;52283;49.292;10.572;2023-02-26T03:41:54;95986.59;;;-3.22;100.00
65614;BME280;52283;49.292;10.572;2023-02-26T03:44:25;95990.59;;;-3.27;100.00
65614;BME280;52283;49.292;10.572;2023-02-26T03:46:57;95984.97;;;-3.20;100.00
65614;BME280;52283;49.292;10.572;2023-02-26T03:49:27;95993.34;;;-3.27;100.00
65614;BME280;52283;49.292;10.572;2023-02-26T03:51:56;95996.19;;;-3.34;100.00
65614;BME280;52283;49.292;10.572;2023-02-26T03:54:26;95995.03;;;-3.33;100.00
65614;BME280;52283;49.292;10.572;2023-02-26T03:56:55;95995.25;;;-3.44;100.00
65614;BME280;52283;49.292;10.572;2023-02-26T03:59:22;96004.78;;;-3.32;100.00
65614;BME280;52283;49.292;10.572;2023-02-26T04:01:53;96004.78;;;-3.32;100.00
65614;BME280;52283;49.292;10.572;2023-02-26T04:04:25;96004.78;;;-3.32;100.00
65614;BME280;52283;49.292;10.572;2023-02-26T04:06:54;96008.41;;;-3.39;100.00
65614;BME280;52283;49.292;10.572;2023-02-26T04:09:21;96019.56;;;-3.49;100.00
65614;BME280;52283;49.292;10.572;2023-02-26T04:11:48;96028.59;;;-3.32;100.00
65614;BME280;52283;49.292;10.572;2023-02-26T04:14:16;96025.91;;;-3.36;100.00
65614;BME280;52283;49.292;10.572;2023-02-26T04:16:43;96036.63;;;-3.25;100.00
65614;BME280;52283;49.292;10.572;2023-02-26T04:19:10;96024.03;;;-3.39;100.00
65614;BME280;52283;49.292;10.572;2023-02-26T04:21:38;96028.13;;;-3.47;100.00
65614;BME280;52283;49.292;10.572;2023-02-26T04:24:04;96037.00;;;-3.43;100.00
65614;BME280;52283;49.292;10.572;2023-02-26T04:26:31;96035.09;;;-3.26;100.00
65614;BME280;52283;49.292;10.572;2023-02-26T04:28:57;96040.81;;;-3.21;100.00
65614;BME280;52283;49.292;10.572;2023-02-26T04:31:24;96037.06;;;-3.47;100.00
65614;BME280;52283;49.292;10.572;2023-02-26T04:33:50;96033.56;;;-3.27;100.00
65614;BME280;52283;49.292;10.572;2023-02-26T04:36:17;96037.59;;;-3.16;100.00
65614;BME280;52283;49.292;10.572;2023-02-26T04:38:44;96050.97;;;-3.21;100.00
65614;BME280;52283;49.292;10.572;2023-02-26T04:41:11;96043.38;;;-3.14;100.00
65614;BME280;52283;49.292;10.572;2023-02-26T04:43:37;96039.72;;;-3.23;100.00
65614;BME280;52283;49.292;10.572;2023-02-26T04:46:04;96053.13;;;-3.13;100.00
65614;BME280;52283;49.292;10.572;2023-02-26T04:48:30;96055.25;;;-3.20;100.00
65614;BME280;52283;49.292;10.572;2023-02-26T04:50:57;96064.50;;;-3.34;100.00
65614;BME280;52283;49.292;10.572;2023-02-26T04:53:23;96062.66;;;-3.01;100.00
65614;BME280;52283;49.292;10.572;2023-02-26T04:55:51;96059.75;;;-2.94;100.00
65614;BME280;52283;49.292;10.572;2023-02-26T04:58:18;96064.47;;;-2.78;100.00
65614;BME280;52283;49.292;10.572;2023-02-26T05:00:47;96069.69;;;-2.84;100.00
65614;BME280;52283;49.292;10.572;2023-02-26T05:03:13;96078.69;;;-2.67;100.00
65614;BME280;52283;49.292;10.572;2023-02-26T05:05:40;96075.19;;;-2.67;100.00
65614;BME280;52283;49.292;10.572;2023-02-26T05:08:06;96082.28;;;-2.70;100.00
65614;BME280;52283;49.292;10.572;2023-02-26T05:10:33;96075.34;;;-2.91;100.00
65614;BME280;52283;49.292;10.572;2023-02-26T05:13:01;96075.56;;;-3.01;100.00
65614;BME280;52283;49.292;10.572;2023-02-26T05:15:27;96084.75;;;-2.76;100.00
65614;BME280;52283;49.292;10.572;2023-02-26T05:17:54;96079.63;;;-2.73;100.00
65614;BME280;52283;49.292;10.572;2023-02-26T05:20:20;96087.84;;;-3.10;100.00
65614;BME280;52283;49.292;10.572;2023-02-26T05:22:47;96084.59;;;-3.04;100.00
65614;BME280;52283;49.292;10.572;2023-02-26T05:25:13;96083.59;;;-2.94;100.00
65614;BME280;52283;49.292;10.572;2023-02-26T05:27:41;96082.25;;;-2.86;100.00
65614;BME280;52283;49.292;10.572;2023-02-26T05:30:10;96084.53;;;-3.01;100.00
65614;BME280;52283;49.292;10.572;2023-02-26T05:32:38;96090.25;;;-2.95;100.00
65614;BME280;52283;49.292;10.572;2023-02-26T05:35:06;96092.09;;;-2.89;100.00
65614;BME280;52283;49.292;10.572;2023-02-26T05:37:32;96086.88;;;-2.83;100.00
65614;BME280;52283;49.292;10.572;2023-02-26T05:39:59;96084.31;;;-2.90;100.00
65614;BME280;52283;49.292;10.572;2023-02-26T05:42:25;96096.44;;;-2.91;100.00
65614;BME280;52283;49.292;10.572;2023-02-26T05:44:52;96103.50;;;-2.94;100.00
65614;BME280;52283;49.292;10.572;2023-02-26T05:47:19;96098.38;;;-2.92;100.00
65614;BME280;52283;49.292;10.572;2023-02-26T05:49:46;96102.38;;;-2.96;100.00
65614;BME280;52283;49.292;10.572;2023-02-26T05:52:13;96107.09;;;-2.97;100.00
65614;BME280;52283;49.292;10.572;2023-02-26T05:54:39;96104.97;;;-2.89;100.00
65614;BME280;52283;49.292;10.572;2023-02-26T05:57:06;96113.09;;;-2.86;100.00
65614;BME280;52283;49.292;10.572;2023-02-26T05:59:32;96120.06;;;-3.01;100.00
65614;BME280;52283;49.292;10.572;2023-02-26T06:01:58;96120.91;;;-3.04;100.00
65614;BME280;52283;49.292;10.572;2023-02-26T06:04:26;96121.16;;;-2.79;100.00
65614;BME280;52283;49.292;10.572;2023-02-26T06:06:53;96127.53;;;-2.85;100.00
65614;BME280;52283;49.292;10.572;2023-02-26T06:09:19;96122.13;;;-2.69;100.00
65614;BME280;52283;49.292;10.572;2023-02-26T06:11:46;96129.63;;;-2.73;100.00
65614;BME280;52283;49.292;10.572;2023-02-26T06:14:12;96136.38;;;-2.97;100.00
65614;BME280;52283;49.292;10.572;2023-02-26T06:16:39;96139.34;;;-2.88;100.00
65614;BME280;52283;49.292;10.572;2023-02-26T06:19:05;96136.66;;;-2.92;100.00
65614;BME280;52283;49.292;10.572;2023-02-26T06:21:33;96143.91;;;-3.01;100.00
65614;BME280;52283;49.292;10.572;2023-02-26T06:23:59;96140.53;;;-2.89;100.00
65614;BME280;52283;49.292;10.572;2023-02-26T06:26:26;96143.31;;;-3.13;100.00
65614;BME280;52283;49.292;10.572;2023-02-26T06:28:52;96149.09;;;-3.07;100.00
65614;BME280;52283;49.292;10.572;2023-02-26T06:31:19;96150.41;;;-2.95;100.00
65614;BME280;52283;49.292;10.572;2023-02-26T06:33:45;96151.75;;;-3.03;100.00
65614;BME280;52283;49.292;10.572;2023-02-26T06:36:12;96165.00;;;-3.02;100.00
65614;BME280;52283;49.292;10.572;2023-02-26T06:38:39;96164.00;;;-2.92;100.00
65614;BME280;52283;49.292;10.572;2023-02-26T06:41:06;96163.53;;;-2.87;100.00
65614;BME280;52283;49.292;10.572;2023-02-26T06:43:33;96178.38;;;-2.68;100.00
65614;BME280;52283;49.292;10.572;2023-02-26T06:45:59;96177.50;;;-2.65;100.00
65614;BME280;52283;49.292;10.572;2023-02-26T06:48:26;96182.72;;;-2.70;100.00
65614;BME280;52283;49.292;10.572;2023-02-26T06:50:53;96188.72;;;-2.59;100.00
65614;BME280;52283;49.292;10.572;2023-02-26T06:53:19;96187.53;;;-2.58;100.00
65614;BME280;52283;49.292;10.572;2023-02-26T06:55:49;96188.13;;;-2.51;100.00
65614;BME280;52283;49.292;10.572;2023-02-26T06:58:16;96190.84;;;-2.67;100.00
65614;BME280;52283;49.292;10.572;2023-02-26T07:00:43;96187.78;;;-2.53;100.00
65614;BME280;52283;49.292;10.572;2023-02-26T07:03:12;96195.31;;;-2.57;100.00
65614;BME280;52283;49.292;10.572;2023-02-26T07:05:38;96201.16;;;-2.38;100.00
65614;BME280;52283;49.292;10.572;2023-02-26T07:08:06;96205.78;;;-2.35;100.00
65614;BME280;52283;49.292;10.572;2023-02-26T07:10:33;96217.94;;;-2.36;100.00
65614;BME280;52283;49.292;10.572;2023-02-26T07:13:01;96209.03;;;-2.40;100.00
65614;BME280;52283;49.292;10.572;2023-02-26T07:15:28;96214.69;;;-2.31;100.00
65614;BME280;52283;49.292;10.572;2023-02-26T07:17:54;96219.63;;;-2.42;100.00
65614;BME280;52283;49.292;10.572;2023-02-26T07:20:21;96227.00;;;-2.39;100.00
65614;BME280;52283;49.292;10.572;2023-02-26T07:22:48;96232.31;;;-2.68;100.00
65614;BME280;52283;49.292;10.572;2023-02-26T07:25:14;96220.59;;;-2.33;100.00
65614;BME280;52283;49.292;10.572;2023-02-26T07:27:41;96223.91;;;-2.41;100.00
65614;BME280;52283;49.292;10.572;2023-02-26T07:30:11;96232.09;;;-2.22;100.00
65614;BME280;52283;49.292;10.572;2023-02-26T07:32:38;96234.81;;;-2.22;100.00
65614;BME280;52283;49.292;10.572;2023-02-26T07:35:05;96245.34;;;-2.20;100.00
65614;BME280;52283;49.292;10.572;2023-02-26T07:37:31;96248.81;;;-2.00;100.00
65614;BME280;52283;49.292;10.572;2023-02-26T07:39:58;96254.03;;;-2.05;100.00
65614;BME280;52283;49.292;10.572;2023-02-26T07:42:25;96266.19;;;-1.90;100.00
65614;BME280;52283;49.292;10.572;2023-02-26T07:44:51;96260.72;;;-1.74;100.00
65614;BME280;52283;49.292;10.572;2023-02-26T07:47:19;96263.91;;;-1.75;100.00
65614;BME280;52283;49.292;10.572;2023-02-26T07:49:46;96261.78;;;-2.20;100.00
65614;BME280;52283;49.292;10.572;2023-02-26T07:52:12;96266.41;;;-2.17;100.00
65614;BME280;52283;49.292;10.572;2023-02-26T07:54:38;96276.19;;;-2.00;100.00
65614;BME280;52283;49.292;10.572;2023-02-26T07:57:05;96272.78;;;-1.71;100.00
65614;BME280;52283;49.292;10.572;2023-02-26T07:59:31;96277.06;;;-1.70;100.00
65614;BME280;52283;49.292;10.572;2023-02-26T08:01:58;96281.25;;;-1.98;100.00
65614;BME280;52283;49.292;10.572;2023-02-26T08:04:26;96283.31;;;-1.86;100.00
65614;BME280;52283;49.292;10.572;2023-02-26T08:06:52;96281.72;;;-1.51;100.00
65614;BME280;52283;49.292;10.572;2023-02-26T08:09:19;96276.50;;;-1.62;100.00
65614;BME280;52283;49.292;10.572;2023-02-26T08:11:45;96285.09;;;-1.96;100.00
65614;BME280;52283;49.292;10.572;2023-02-26T08:14:12;96292.16;;;-1.78;100.00
65614;BME280;52283;49.292;10.572;2023-02-26T08:16:39;96286.00;;;-1.66;100.00
65614;BME280;52283;49.292;10.572;2023-02-26T08:19:05;96286.94;;;-1.40;100.00
65614;BME280;52283;49.292;10.572;2023-02-26T08:21:33;96289.91;;;-1.67;100.00
65614;BME280;52283;49.292;10.572;2023-02-26T08:23:59;96291.81;;;-1.64;100.00
65614;BME280;52283;49.292;10.572;2023-02-26T08:26:26;96291.88;;;-1.68;100.00
65614;BME280;52283;49.292;10.572;2023-02-26T08:28:53;96295.94;;;-1.56;100.00
65614;BME280;52283;49.292;10.572;2023-02-26T08:31:19;96293.94;;;-1.72;100.00
65614;BME280;52283;49.292;10.572;2023-02-26T08:33:46;96298.56;;;-1.69;100.00
65614;BME280;52283;49.292;10.572;2023-02-26T08:36:12;96303.81;;;-1.58;100.00
65614;BME280;52283;49.292;10.572;2023-02-26T08:38:40;96313.16;;;-1.56;100.00
65614;BME280;52283;49.292;10.572;2023-02-26T08:41:07;96315.00;;;-1.85;100.00
65614;BME280;52283;49.292;10.572;2023-02-26T08:43:33;96319.84;;;-1.40;100.00
65614;BME280;52283;49.292;10.572;2023-02-26T08:46:00;96320.34;;;-1.29;100.00
65614;BME280;52283;49.292;10.572;2023-02-26T08:48:27;96326.59;;;-1.29;100.00
65614;BME280;52283;49.292;10.572;2023-02-26T08:50:53;96333.81;;;-1.18;100.00
65614;BME280;52283;49.292;10.572;2023-02-26T08:53:20;96330.94;;;-1.47;100.00
65614;BME280;52283;49.292;10.572;2023-02-26T08:55:48;96336.94;;;-1.52;100.00
65614;BME280;52283;49.292;10.572;2023-02-26T08:58:15;96340.38;;;-1.65;100.00
65614;BME280;52283;49.292;10.572;2023-02-26T09:00:42;96355.28;;;-1.33;100.00
65614;BME280;52283;49.292;10.572;2023-02-26T09:03:08;96346.50;;;-1.77;100.00
65614;BME280;52283;49.292;10.572;2023-02-26T09:05:35;96349.03;;;-1.50;100.00
65614;BME280;52283;49.292;10.572;2023-02-26T09:08:02;96350.66;;;-1.52;100.00
65614;BME280;52283;49.292;10.572;2023-02-26T09:10:28;96361.56;;;-1.16;100.00
65614;BME280;52283;49.292;10.572;2023-02-26T09:12:56;96360.09;;;-0.88;100.00
65614;BME280;52283;49.292;10.572;2023-02-26T09:15:23;96362.00;;;-1.02;100.00
65614;BME280;52283;49.292;10.572;2023-02-26T09:17:49;96365.63;;;-0.59;100.00
65614;BME280;52283;49.292;10.572;2023-02-26T09:20:17;96377.47;;;-1.28;100.00
65614;BME280;52283;49.292;10.572;2023-02-26T09:22:43;96375.38;;;-1.20;100.00
65614;BME280;52283;49.292;10.572;2023-02-26T09:25:10;96378.94;;;-1.39;100.00
65614;BME280;52283;49.292;10.572;2023-02-26T09:27:37;96377.84;;;-1.09;100.00
65614;BME280;52283;49.292;10.572;2023-02-26T09:30:06;96379.66;;;-1.19;100.00
65614;BME280;52283;49.292;10.572;2023-02-26T09:32:32;96376.81;;;-1.15;100.00
65614;BME280;52283;49.292;10.572;2023-02-26T09:34:59;96387.88;;;-1.03;100.00
65614;BME280;52283;49.292;10.572;2023-02-26T09:37:26;96378.88;;;-1.19;100.00
65614;BME280;52283;49.292;10.572;2023-02-26T09:39:53;96392.41;;;-1.12;100.00
65614;BME280;52283;49.292;10.572;2023-02-26T09:42:30;96388.63;;;-0.86;100.00
65614;BME280;52283;49.292;10.572;2023-02-26T09:45:02;96389.34;;;-0.98;100.00
65614;BME280;52283;49.292;10.572;2023-02-26T09:47:35;96396.66;;;-0.63;100.00
65614;BME280;52283;49.292;10.572;2023-02-26T09:50:10;96397.75;;;-0.44;100.00
65614;BME280;52283;49.292;10.572;2023-02-26T09:52:44;96401.00;;;-0.78;100.00
65614;BME280;52283;49.292;10.572;2023-02-26T09:55:18;96403.09;;;-0.24;100.00
65614;BME280;52283;49.292;10.572;2023-02-26T09:57:51;96401.84;;;-0.81;100.00
65614;BME280;52283;49.292;10.572;2023-02-26T10:00:23;96408.00;;;-0.77;100.00
65614;BME280;52283;49.292;10.572;2023-02-26T10:03:00;96414.50;;;-0.54;100.00
65614;BME280;52283;49.292;10.572;2023-02-26T10:05:36;96415.28;;;-0.86;100.00
65614;BME280;52283;49.292;10.572;2023-02-26T10:08:06;96416.66;;;-0.17;100.00
65614;BME280;52283;49.292;10.572;2023-02-26T10:10:41;96421.06;;;-0.19;100.00
65614;BME280;52283;49.292;10.572;2023-02-26T10:13:20;96425.88;;;0.06;100.00
65614;BME280;52283;49.292;10.572;2023-02-26T10:15:49;96428.31;;;0.16;100.00
65614;BME280;52283;49.292;10.572;2023-02-26T10:18:21;96432.22;;;-0.26;100.00
65614;BME280;52283;49.292;10.572;2023-02-26T10:20:53;96435.34;;;-0.57;100.00
65614;BME280;52283;49.292;10.572;2023-02-26T10:23:24;96429.72;;;0.50;100.00
65614;BME280;52283;49.292;10.572;2023-02-26T10:25:55;96422.97;;;0.38;100.00
65614;BME280;52283;49.292;10.572;2023-02-26T10:28:37;96429.19;;;0.68;100.00
65614;BME280;52283;49.292;10.572;2023-02-26T10:31:12;96426.41;;;0.42;100.00
65614;BME280;52283;49.292;10.572;2023-02-26T10:33:48;96434.41;;;0.37;100.00
65614;BME280;52283;49.292;10.572;2023-02-26T10:36:21;96440.75;;;-0.08;100.00
65614;BME280;52283;49.292;10.572;2023-02-26T10:38:53;96449.22;;;-0.03;100.00
65614;BME280;52283;49.292;10.572;2023-02-26T10:41:24;96439.28;;;0.04;100.00
65614;BME280;52283;49.292;10.572;2023-02-26T10:44:00;96439.78;;;-0.02;100.00
65614;BME280;52283;49.292;10.572;2023-02-26T10:46:35;96445.25;;;-0.14;100.00
65614;BME280;52283;49.292;10.572;2023-02-26T10:49:28;96449.03;;;0.34;100.00
65614;BME280;52283;49.292;10.572;2023-02-26T10:52:04;96445.88;;;0.06;100.00
65614;BME280;52283;49.292;10.572;2023-02-26T10:54:38;96440.22;;;0.39;100.00
65614;BME280;52283;49.292;10.572;2023-02-26T10:57:08;96445.09;;;0.47;100.00
65614;BME280;52283;49.292;10.572;2023-02-26T10:59:40;96444.56;;;0.11;100.00
65614;BME280;52283;49.292;10.572;2023-02-26T11:02:32;96446.09;;;-0.17;100.00
65614;BME280;52283;49.292;10.572;2023-02-26T11:05:01;96444.44;;;0.14;100.00
65614;BME280;52283;49.292;10.572;2023-02-26T11:07:29;96450.09;;;-0.06;100.00
65614;BME280;52283;49.292;10.572;2023-02-26T11:09:57;96463.47;;;-0.53;100.00
65614;BME280;52283;49.292;10.572;2023-02-26T11:12:24;96469.00;;;-0.24;100.00
65614;BME280;52283;49.292;10.572;2023-02-26T11:14:52;96458.56;;;-0.29;100.00
65614;BME280;52283;49.292;10.572;2023-02-26T11:17:20;96469.53;;;-0.13;100.00
65614;BME280;52283;49.292;10.572;2023-02-26T11:19:51;96445.81;;;-0.07;100.00
65614;BME280;52283;49.292;10.572;2023-02-26T11:22:20;96449.47;;;0.32;100.00
65614;BME280;52283;49.292;10.572;2023-02-26T11:24:48;96442.03;;;0.45;98.30
65614;BME280;52283;49.292;10.572;2023-02-26T11:27:17;96444.06;;;0.41;99.11
65614;BME280;52283;49.292;10.572;2023-02-26T11:29:47;96440.06;;;0.17;95.59
65614;BME280;52283;49.292;10.572;2023-02-26T11:32:18;96434.00;;;0.51;94.06
65614;BME280;52283;49.292;10.572;2023-02-26T11:34:46;96434.03;;;0.76;93.86
65614;BME280;52283;49.292;10.572;2023-02-26T11:37:17;96427.19;;;0.68;93.94
65614;BME280;52283;49.292;10.572;2023-02-26T11:39:55;96428.63;;;0.18;91.75
65614;BME280;52283;49.292;10.572;2023-02-26T11:42:22;96417.66;;;0.85;89.88
65614;BME280;52283;49.292;10.572;2023-02-26T11:44:49;96406.34;;;1.78;88.51
65614;BME280;52283;49.292;10.572;2023-02-26T11:47:20;96391.34;;;2.23;78.30
65614;BME280;52283;49.292;10.572;2023-02-26T11:49:50;96407.31;;;2.06;80.98
65614;BME280;52283;49.292;10.572;2023-02-26T11:52:27;96391.97;;;2.49;74.89
65614;BME280;52283;49.292;10.572;2023-02-26T11:54:59;96402.00;;;0.70;78.37
65614;BME280;52283;49.292;10.572;2023-02-26T11:57:27;96416.38;;;1.25;81.99
65614;BME280;52283;49.292;10.572;2023-02-26T11:59:57;96406.63;;;0.73;80.33
65614;BME280;52283;49.292;10.572;2023-02-26T12:02:25;96413.75;;;0.57;81.56
65614;BME280;52283;49.292;10.572;2023-02-26T12:04:57;96412.66;;;0.55;81.82
65614;BME280;52283;49.292;10.572;2023-02-26T12:07:25;96407.41;;;0.73;81.87
65614;BME280;52283;49.292;10.572;2023-02-26T12:09:51;96405.53;;;0.70;81.12
65614;BME280;52283;49.292;10.572;2023-02-26T12:12:33;96397.72;;;1.54;77.98
65614;BME280;52283;49.292;10.572;2023-02-26T12:15:16;96389.13;;;2.61;74.83
65614;BME280;52283;49.292;10.572;2023-02-26T12:17:58;96378.09;;;1.87;71.36
65614;BME280;52283;49.292;10.572;2023-02-26T12:20:35;96394.28;;;1.63;72.63
65614;BME280;52283;49.292;10.572;2023-02-26T12:23:24;96400.56;;;0.90;74.37
65614;BME280;52283;49.292;10.572;2023-02-26T12:26:02;96399.69;;;0.94;75.04
65614;BME280;52283;49.292;10.572;2023-02-26T12:28:59;96400.91;;;0.93;73.99
65614;BME280;52283;49.292;10.572;2023-02-26T12:32:02;96402.00;;;1.08;73.87
65614;BME280;52283;49.292;10.572;2023-02-26T12:34:41;96396.78;;;1.22;72.32
65614;BME280;52283;49.292;10.572;2023-02-26T12:37:24;96389.00;;;2.12;69.10
65614;BME280;52283;49.292;10.572;2023-02-26T12:40:04;96398.50;;;1.55;68.14
65614;BME280;52283;49.292;10.572;2023-02-26T12:42:42;96393.84;;;1.17;70.72
65614;BME280;52283;49.292;10.572;2023-02-26T12:45:25;96412.53;;;1.22;71.00
65614;BME280;52283;49.292;10.572;2023-02-26T12:48:06;96399.59;;;1.44;72.62
65614;BME280;52283;49.292;10.572;2023-02-26T12:50:49;96403.56;;;1.56;72.44
65614;BME280;52283;49.292;10.572;2023-02-26T12:53:42;96397.41;;;1.52;70.01
65614;BME280;52283;49.292;10.572;2023-02-26T12:56:27;96386.38;;;1.52;70.47
65614;BME280;52283;49.292;10.572;2023-02-26T12:59:10;96388.50;;;1.48;70.22
65614;BME280;52283;49.292;10.572;2023-02-26T13:01:44;96398.38;;;1.45;69.88